Metar z pełnej godziny Komunikat METAR ze strony awiacja.imgw.pl Metar G00 EPPO METAR EPPO 230700Z 29013KT 9999 BKN013 06/03 Q1021 =